Time;durP1;ratioP1;P1;durP2;ratioP2;P2;SDS_P1;SDS_P2;PMS_P1;PMS_P2;Temp;Humidity;BMP_temperature;BMP_pressure;BME280_temperature;BME280_humidity;BME280_pressure;Samples;Min_cycle;Max_cycle;Signal;HPM_P1;HPM_P2
2021/01/13 00:01:41;;;;;;;21.90;11.48;;;;;;;-3.21;83.44;98805.67;1832148;77;20891;-76
2021/01/13 00:04:12;;;;;;;24.32;11.33;;;;;;;-3.21;83.53;98799.78;1849287;77;21254;-76
2021/01/13 00:06:39;;;;;;;23.52;12.05;;;;;;;-3.22;83.64;98797.33;1849284;77;20926;-76
2021/01/13 00:09:07;;;;;;;21.42;11.57;;;;;;;-3.24;84.00;98790.87;1849335;77;21116;-75
2021/01/13 00:11:35;;;;;;;23.07;10.48;;;;;;;-3.23;84.06;98783.63;1849284;77;21108;-75
2021/01/13 00:14:02;;;;;;;20.50;9.93;;;;;;;-3.21;84.03;98785.54;1849342;77;21137;-77
2021/01/13 00:16:30;;;;;;;26.97;12.15;;;;;;;-3.22;83.77;98786.07;1849230;77;22248;-77
2021/01/13 00:18:57;;;;;;;19.80;10.15;;;;;;;-3.24;83.84;98777.97;1849269;77;20923;-78
2021/01/13 00:21:25;;;;;;;22.48;10.28;;;;;;;-3.23;83.85;98775.58;1849263;77;20982;-78
2021/01/13 00:23:52;;;;;;;20.60;10.50;;;;;;;-3.24;84.13;98764.55;1849281;77;20915;-78
2021/01/13 00:26:22;;;;;;;19.50;9.83;;;;;;;-3.23;84.27;98762.16;1849423;77;21049;-80
2021/01/13 00:28:50;;;;;;;19.75;9.60;;;;;;;-3.23;84.02;98760.81;1849282;77;21374;-80
2021/01/13 00:31:20;;;;;;;18.48;9.83;;;;;;;-3.23;83.92;98764.84;1849217;77;21557;-77
2021/01/13 00:33:48;;;;;;;20.52;8.65;;;;;;;-3.24;83.58;98761.87;1849443;77;21456;-78
2021/01/13 00:36:23;;;;;;;19.25;9.85;;;;;;;-3.25;83.05;98764.27;1849272;77;21085;-78
2021/01/13 00:38:51;;;;;;;19.62;8.90;;;;;;;-3.27;82.92;98759.67;1849353;77;21052;-78
2021/01/13 00:41:19;;;;;;;17.27;8.68;;;;;;;-3.27;83.28;98756.98;1849252;77;22205;-79
2021/01/13 00:43:52;;;;;;;17.45;9.53;;;;;;;-3.28;82.81;98754.02;1849284;77;21132;-78
2021/01/13 00:46:20;;;;;;;17.07;9.13;;;;;;;-3.29;83.02;98751.05;1819168;77;21441;-78
2021/01/13 00:48:49;;;;;;;20.02;9.95;;;;;;;-3.28;83.20;98755.36;1849285;77;21071;-76
2021/01/13 00:51:16;;;;;;;20.02;10.05;;;;;;;-3.27;83.53;98757.80;1849407;77;21525;-77
2021/01/13 00:53:45;;;;;;;20.02;9.43;;;;;;;-3.25;83.62;98750.84;1849378;77;21357;-77
2021/01/13 00:56:13;;;;;;;18.60;9.83;;;;;;;-3.25;83.40;98750.32;1849186;77;21013;-77
2021/01/13 00:58:40;;;;;;;17.27;8.60;;;;;;;-3.25;83.38;98737.42;1819189;77;20927;-74
2021/01/13 01:01:08;;;;;;;19.92;10.10;;;;;;;-3.26;83.25;98738.48;1849091;77;21615;-75
2021/01/13 01:03:36;;;;;;;18.70;9.55;;;;;;;-3.26;83.41;98735.80;1849329;77;21121;-75
2021/01/13 01:06:04;;;;;;;18.90;10.45;;;;;;;-3.26;83.51;98735.80;1849284;77;21374;-75
2021/01/13 01:08:31;;;;;;;19.57;9.18;;;;;;;-3.26;83.32;98735.80;1849247;77;21104;-75
2021/01/13 01:10:59;;;;;;;18.62;10.00;;;;;;;-3.26;83.52;98733.93;1849269;77;21375;-76
2021/01/13 01:13:26;;;;;;;20.62;10.80;;;;;;;-3.25;83.40;98735.55;1849262;77;21100;-76
2021/01/13 01:15:54;;;;;;;18.55;10.18;;;;;;;-3.25;83.26;98733.40;1849284;77;21080;-76
2021/01/13 01:18:23;;;;;;;19.57;9.53;;;;;;;-3.25;83.24;98732.88;1849242;77;21418;-75
2021/01/13 01:20:51;;;;;;;20.90;10.55;;;;;;;-3.24;83.43;98734.50;1849275;77;21485;-75
2021/01/13 01:23:18;;;;;;;20.52;9.35;;;;;;;-3.22;83.52;98725.67;1849219;77;20915;-75
2021/01/13 01:25:46;;;;;;;21.97;10.18;;;;;;;-3.22;83.10;98708.75;1849242;77;20922;-75
2021/01/13 01:28:14;;;;;;;20.48;10.72;;;;;;;-3.24;83.11;98692.89;1849226;77;21112;-74
2021/01/13 01:30:42;;;;;;;20.88;10.35;;;;;;;-3.26;83.33;98684.80;1849250;77;21145;-74
2021/01/13 01:33:10;;;;;;;20.10;10.80;;;;;;;-3.24;83.14;98674.63;1849310;77;21474;-76
2021/01/13 01:35:38;;;;;;;21.23;11.30;;;;;;;-3.24;83.22;98670.61;1849207;77;20918;-76
2021/01/13 01:38:06;;;;;;;20.20;9.70;;;;;;;-3.24;83.23;98671.95;1849241;77;21152;-75
2021/01/13 01:40:33;;;;;;;21.37;11.33;;;;;;;-3.23;83.52;98673.57;1849302;77;21132;-76
2021/01/13 01:43:01;;;;;;;23.45;11.53;;;;;;;-3.20;83.95;98663.68;1849234;77;21379;-74
2021/01/13 01:45:30;;;;;;;23.35;11.88;;;;;;;-3.17;83.41;98667.22;1849276;77;21481;-75
2021/01/13 01:48:15;;;;;;;24.27;12.53;;;;;;;-3.18;83.06;98661.56;1849341;77;20922;-77
2021/01/13 01:50:46;;;;;;;27.95;11.38;;;;;;;-3.21;83.01;98681.66;1849364;77;21492;-79
2021/01/13 01:53:43;;;;;;;23.40;11.60;;;;;;;-3.23;83.11;98672.23;1849329;77;21116;-79
2021/01/13 01:56:28;;;;;;;20.27;10.35;;;;;;;-3.24;83.14;98661.21;1849172;77;21655;-77
2021/01/13 01:59:11;;;;;;;22.58;10.98;;;;;;;-3.26;83.31;98648.03;1849212;77;21512;-77
2021/01/13 02:01:43;;;;;;;24.02;11.18;;;;;;;-3.24;83.30;98644.58;1849823;77;21061;-76
2021/01/13 02:04:31;;;;;;;;;;;;;;;-3.25;83.64;98638.92;1855262;77;20914;-75
2021/01/13 02:07:14;;;;;;;26.33;11.15;;;;;;;-3.24;83.43;98621.76;1852616;77;20151;-79
2021/01/13 02:09:42;;;;;;;26.40;12.75;;;;;;;-3.24;83.27;98630.34;1852487;77;21185;-79
2021/01/13 02:12:12;;;;;;;27.22;13.03;;;;;;;-3.27;83.31;98635.67;1852423;77;21073;-79
2021/01/13 02:14:43;;;;;;;27.48;12.70;;;;;;;-3.26;83.31;98633.80;1852578;77;20915;-79
2021/01/13 02:17:11;;;;;;;25.15;12.23;;;;;;;-3.26;83.20;98637.83;1852475;77;21037;-79
2021/01/13 02:19:51;;;;;;;27.98;12.35;;;;;;;-3.28;82.95;98639.42;1852553;77;20982;-78
2021/01/13 02:22:20;;;;;;;25.45;12.55;;;;;;;-3.29;82.98;98638.33;1852480;77;21606;-78
2021/01/13 02:24:54;;;;;;;27.42;12.47;;;;;;;-3.28;83.32;98631.89;1852434;77;20942;-78
2021/01/13 02:28:01;;;;;;;25.45;13.25;;;;;;;-3.26;83.53;98627.91;1851329;77;21060;-78
2021/01/13 02:30:41;;;;;;;24.18;11.95;;;;;;;-3.24;83.64;98618.27;1852449;77;20922;-78
2021/01/13 02:33:26;;;;;;;27.95;13.18;;;;;;;-3.23;83.53;98619.89;1825073;77;21041;-77
2021/01/13 02:36:11;;;;;;;29.98;12.60;;;;;;;-3.23;83.55;98609.96;1851185;77;21387;-79
2021/01/13 02:38:39;;;;;;;31.52;13.55;;;;;;;-3.22;83.65;98591.98;1773663;80;21112;-79
2021/01/13 02:41:15;;;;;;;28.15;14.07;;;;;;;-3.24;83.22;98588.20;1760949;80;21567;-79
2021/01/13 02:43:54;;;;;;;27.30;13.68;;;;;;;-3.25;83.19;98584.43;1776034;80;21494;-78
2021/01/13 02:46:59;;;;;;;28.42;13.05;;;;;;;-3.25;83.60;98588.45;1777218;80;21047;-78
2021/01/13 02:49:39;;;;;;;28.73;13.18;;;;;;;-3.24;83.23;98591.42;1777719;80;21247;-78
2021/01/13 02:52:19;;;;;;;34.18;14.85;;;;;;;-3.27;83.10;98586.02;1756155;81;21127;-77
2021/01/13 02:54:54;;;;;;;28.92;14.85;;;;;;;-3.27;83.17;98585.20;1753964;81;21556;-77
2021/01/13 02:57:27;;;;;;;29.65;14.78;;;;;;;-3.28;83.26;98574.19;1756231;81;21056;-77
2021/01/13 02:59:59;;;;;;;34.20;15.98;;;;;;;-3.30;83.37;98566.39;1756233;81;21009;-77
2021/01/13 03:02:36;;;;;;;30.23;15.90;;;;;;;-3.30;83.60;98568.26;1732985;81;21383;-77
2021/01/13 03:05:06;;;;;;;36.40;16.15;;;;;;;-3.32;83.73;98569.32;1759932;81;20993;-75
2021/01/13 03:07:38;;;;;;;29.15;14.20;;;;;;;-3.31;84.00;98579.53;1736235;81;21167;-75
2021/01/13 03:10:15;;;;;;;30.37;14.68;;;;;;;-3.30;83.57;98576.31;1760102;81;20993;-76
2021/01/13 03:12:42;;;;;;;31.70;14.07;;;;;;;-3.33;83.34;98571.72;1775542;80;21064;-80
2021/01/13 03:15:11;;;;;;;27.40;12.37;;;;;;;-3.35;82.78;98575.19;1775480;80;21123;-80
2021/01/13 03:17:47;;;;;;;28.65;13.28;;;;;;;-3.37;81.93;98566.58;1775383;79;21056;-80
2021/01/13 03:20:53;;;;;;;29.57;13.18;;;;;;;-3.36;81.42;98562.02;1890175;76;22640;-79
2021/01/13 03:23:27;;;;;;;31.68;14.80;;;;;;;-3.42;81.11;98562.48;1861214;77;21474;-76
2021/01/13 03:26:03;;;;;;;32.45;13.38;;;;;;;-3.43;80.54;98562.73;1821701;77;21197;-76
2021/01/13 03:28:35;;;;;;;30.00;13.43;;;;;;;-3.45;80.73;98548.22;1828556;77;21211;-77
2021/01/13 03:31:03;;;;;;;30.40;14.07;;;;;;;-3.45;80.58;98552.24;1829108;77;21483;-80
2021/01/13 03:34:15;;;;;;;29.70;14.33;;;;;;;-3.45;80.67;98545.53;1861049;77;20892;-81
2021/01/13 03:37:19;;;;;;;28.45;12.95;;;;;;;-3.44;80.91;98548.50;1861161;77;21645;-79
2021/01/13 03:39:47;;;;;;;33.75;16.23;;;;;;;-3.43;80.95;98544.76;1860942;77;22277;-80
2021/01/13 03:42:17;;;;;;;38.75;16.25;;;;;;;-3.43;80.93;98545.28;1826895;77;20967;-78
2021/01/13 03:44:46;;;;;;;31.52;14.70;;;;;;;-3.44;80.72;98540.45;1861040;77;21537;-79
2021/01/13 03:47:53;;;;;;;45.20;18.27;;;;;;;-3.44;80.97;98535.09;1861015;77;21014;-79
2021/01/13 03:50:24;;;;;;;64.92;27.20;;;;;;;-3.44;81.06;98536.42;1859740;77;20904;-79
2021/01/13 03:53:01;;;;;;;45.85;19.85;;;;;;;-3.43;80.84;98536.70;1861123;77;22253;-78
2021/01/13 03:55:33;;;;;;;45.38;18.45;;;;;;;-3.46;80.71;98530.50;1861013;77;20953;-79
2021/01/13 03:58:29;;;;;;;49.10;19.70;;;;;;;-3.46;81.08;98531.84;1861130;77;21469;-78
2021/01/13 04:01:04;;;;;;;42.95;19.17;;;;;;;-3.45;81.03;98530.78;1861025;77;20979;-77
2021/01/13 04:03:45;;;;;;;51.20;22.73;;;;;;;-3.47;81.16;98526.75;1861027;77;20924;-76
2021/01/13 04:06:13;;;;;;;54.93;21.87;;;;;;;-3.47;81.50;98536.95;1831263;77;21137;-76
2021/01/13 04:08:46;;;;;;;52.15;21.93;;;;;;;-3.45;81.56;98524.59;1860978;77;20888;-74
2021/01/13 04:11:20;;;;;;;50.63;21.55;;;;;;;-3.44;81.65;98513.62;1861082;77;20903;-75
2021/01/13 04:13:54;;;;;;;56.10;24.72;;;;;;;-3.45;81.47;98520.05;1861038;77;21545;-75
2021/01/13 04:16:22;;;;;;;60.55;25.60;;;;;;;-3.46;81.69;98525.13;1861034;77;21141;-75
2021/01/13 04:18:51;;;;;;;55.48;24.05;;;;;;;-3.43;82.32;98522.48;1861747;77;22086;-76
2021/01/13 04:21:21;;;;;;;61.08;27.67;;;;;;;-3.43;81.72;98518.45;1864303;77;20935;-75
2021/01/13 04:23:49;;;;;;;71.10;29.60;;;;;;;-3.45;81.45;98522.73;1864325;77;20907;-76
2021/01/13 04:26:17;;;;;;;66.45;27.40;;;;;;;-3.48;81.34;98524.59;1864283;77;20970;-75
2021/01/13 04:28:48;;;;;;;62.98;28.10;;;;;;;-3.48;81.40;98517.89;1864336;77;21564;-76
2021/01/13 04:31:15;;;;;;;59.48;26.95;;;;;;;-3.49;81.58;98507.41;1863800;77;21178;-76
2021/01/13 04:33:43;;;;;;;67.95;29.52;;;;;;;-3.48;81.70;98501.80;1863663;77;21474;-76
2021/01/13 04:36:13;;;;;;;69.67;31.05;;;;;;;-3.45;82.09;98504.48;1863673;77;20927;-75
2021/01/13 04:38:41;;;;;;;74.00;30.68;;;;;;;-3.43;82.08;98495.12;1863636;77;20923;-75
2021/01/13 04:41:13;;;;;;;72.32;32.30;;;;;;;-3.41;82.07;98491.65;1863658;77;20904;-75
2021/01/13 04:43:55;;;;;;;79.90;31.17;;;;;;;-3.42;81.91;98490.03;1863740;77;21256;-74
2021/01/13 04:46:36;;;;;;;89.13;33.65;;;;;;;-3.42;82.23;98485.19;1863839;77;20950;-74
2021/01/13 04:49:10;;;;;;;67.40;29.23;;;;;;;-3.40;82.69;98485.75;1863727;77;21570;-75
2021/01/13 04:51:42;;;;;;;63.10;26.77;;;;;;;-3.40;82.43;98478.52;1863646;77;20983;-75
2021/01/13 04:54:14;;;;;;;64.27;27.07;;;;;;;-3.42;82.51;98469.91;1864011;77;20908;-76
2021/01/13 04:57:00;;;;;;;56.30;24.63;;;;;;;-3.44;82.61;98461.83;1863683;77;21176;-81
2021/01/13 05:00:07;;;;;;;50.20;23.07;;;;;;;-3.37;83.49;98465.94;1873713;76;21929;-78
2021/01/13 05:02:44;;;;;;;45.70;20.02;;;;;;;-3.40;83.32;98463.75;1841696;77;20896;-72
2021/01/13 05:05:21;;;;;;;42.00;20.17;;;;;;;-3.40;83.21;98469.66;1841722;78;21169;-74
2021/01/13 05:07:59;;;;;;;53.25;24.02;;;;;;;-3.39;84.01;98475.30;1841753;78;21514;-75
2021/01/13 05:10:30;;;;;;;42.50;20.20;;;;;;;-3.38;83.65;98479.08;1837479;78;21016;-74
2021/01/13 05:12:58;;;;;;;51.33;23.18;;;;;;;-3.38;83.52;98479.08;1811834;78;21577;-75
2021/01/13 05:15:32;;;;;;;45.40;20.80;;;;;;;-3.38;83.55;98481.75;1841784;78;21062;-74
2021/01/13 05:18:11;;;;;;;46.15;19.95;;;;;;;-3.38;83.38;98483.63;1841746;78;21498;-77
2021/01/13 05:20:44;;;;;;;46.40;19.45;;;;;;;-3.39;83.46;98479.33;1841599;77;21003;-79
2021/01/13 05:23:12;;;;;;;38.10;18.35;;;;;;;-3.40;83.28;98470.47;1841686;78;20976;-81
2021/01/13 05:25:50;;;;;;;38.63;19.17;;;;;;;-3.42;83.04;98469.09;1841626;77;20988;-77
2021/01/13 05:28:24;;;;;;;47.85;21.80;;;;;;;-3.46;82.78;98466.10;1820250;78;21035;-79
2021/01/13 05:30:56;;;;;;;45.65;20.50;;;;;;;-3.44;83.49;98468.53;1807611;78;21361;-78
2021/01/13 05:33:30;;;;;;;42.05;20.72;;;;;;;-3.42;83.79;98468.56;1807429;78;21000;-78
2021/01/13 05:36:04;;;;;;;36.35;17.45;;;;;;;-3.40;83.20;98464.28;1801023;79;21677;-79
2021/01/13 05:38:38;;;;;;;;;;;;;;;-3.43;82.37;98460.23;1808855;78;21028;-83
2021/01/13 05:41:10;;;;;;;39.20;17.87;;;;;;;-3.46;82.27;98462.08;1807159;79;20160;-79
2021/01/13 05:43:48;;;;;;;45.50;21.17;;;;;;;-3.50;82.47;98464.20;1806444;78;21401;-88
2021/01/13 05:46:18;;;;;;;45.55;19.07;;;;;;;-3.51;82.42;98462.05;1806661;79;20995;-77
2021/01/13 05:48:49;;;;;;;43.52;20.17;;;;;;;-3.51;82.54;98462.05;1806145;78;21569;-74
2021/01/13 05:51:28;;;;;;;42.40;19.70;;;;;;;-3.50;82.84;98462.33;1801085;79;20917;-78
2021/01/13 05:53:57;;;;;;;42.30;19.45;;;;;;;-3.51;82.48;98466.60;1807619;79;20928;-83
2021/01/13 05:56:25;;;;;;;45.45;21.05;;;;;;;-3.52;82.41;98467.66;1806733;79;21363;-78
2021/01/13 05:59:04;;;;;;;42.93;20.00;;;;;;;-3.52;82.70;98468.48;1806505;78;21185;-80
2021/01/13 06:01:59;;;;;;;35.90;16.80;;;;;;;-3.51;82.73;98470.63;1806442;78;21208;-82
2021/01/13 06:04:28;;;;;;;36.23;18.15;;;;;;;-3.53;82.53;98469.53;1806338;78;21158;-82
2021/01/13 06:07:00;;;;;;;46.77;20.05;;;;;;;-3.53;82.68;98474.91;1806518;79;20940;-74
2021/01/13 06:09:28;;;;;;;;;;;;;;;-3.53;82.83;98468.19;1809021;79;22265;-73
2021/01/13 06:11:57;;;;;;;37.80;16.97;;;;;;;-3.51;83.06;98458.02;1805781;78;20153;-75
2021/01/13 06:14:27;;;;;;;42.80;19.75;;;;;;;-3.49;83.15;98462.61;1806151;79;21460;-79
2021/01/13 06:16:55;;;;;;;37.80;17.23;;;;;;;-3.50;83.30;98450.25;1805857;79;20956;-74
2021/01/13 06:19:24;;;;;;;35.25;15.78;;;;;;;-3.48;83.21;98453.50;1788478;79;21136;-79
2021/01/13 06:22:08;;;;;;;38.25;16.85;;;;;;;-3.48;83.14;98452.69;1778326;79;22148;-80
2021/01/13 06:24:37;;;;;;;47.95;21.33;;;;;;;-3.49;82.91;98455.91;1807592;78;20961;-79
2021/01/13 06:27:21;;;;;;;33.55;16.70;;;;;;;-3.49;83.02;98449.19;1807612;78;21558;-77
2021/01/13 06:29:56;;;;;;;35.58;15.88;;;;;;;-3.48;83.19;98450.81;1807733;78;20944;-75
2021/01/13 06:32:53;;;;;;;37.88;16.87;;;;;;;-3.49;83.45;98449.19;1798669;78;21114;-76
2021/01/13 06:35:43;;;;;;;30.62;14.55;;;;;;;-3.48;83.74;98447.32;1787483;78;21200;-77
2021/01/13 06:38:54;;;;;;;39.78;16.87;;;;;;;-3.49;84.20;98454.56;1806749;78;21008;-79
2021/01/13 06:41:24;;;;;;;37.58;17.27;;;;;;;-3.52;84.64;98456.41;1806039;78;21004;-78
2021/01/13 06:44:04;;;;;;;40.60;18.10;;;;;;;-3.54;84.79;98451.81;1805881;78;21542;-79
2021/01/13 06:46:35;;;;;;;37.80;18.25;;;;;;;-3.57;85.02;98453.66;1806761;79;21063;-72
2021/01/13 06:49:17;;;;;;;39.45;18.35;;;;;;;-3.57;85.13;98448.83;1807751;79;22075;-73
2021/01/13 06:51:49;;;;;;;46.73;19.32;;;;;;;-3.55;85.20;98446.70;1806907;78;21059;-73
2021/01/13 06:54:20;;;;;;;40.20;18.48;;;;;;;-3.55;85.42;98439.47;1806752;78;21111;-72
2021/01/13 06:56:54;;;;;;;40.90;16.77;;;;;;;-3.56;85.55;98444.55;1806427;79;21095;-76
2021/01/13 06:59:23;;;;;;;39.40;18.10;;;;;;;-3.57;85.71;98444.27;1809992;77;20999;-73
2021/01/13 07:01:59;;;;;;;42.70;18.90;;;;;;;-3.53;86.30;98444.05;1812234;77;21348;-83
2021/01/13 07:04:27;;;;;;;32.35;17.48;;;;;;;-3.52;86.34;98440.84;1812546;78;20933;-78
2021/01/13 07:07:11;;;;;;;30.90;15.48;;;;;;;-3.50;86.45;98440.86;1811333;78;20980;-80
2021/01/13 07:09:39;;;;;;;;;;;;;;;-3.52;86.48;98434.12;1814273;79;21154;-73
2021/01/13 07:12:21;;;;;;;35.55;16.97;;;;;;;-3.50;86.80;98436.84;1813056;77;20141;-79
2021/01/13 07:14:51;;;;;;;37.35;17.90;;;;;;;-3.48;86.98;98434.72;1798261;77;21723;-79
2021/01/13 07:17:22;;;;;;;41.00;19.23;;;;;;;-3.51;87.06;98433.88;1812289;79;21133;-85
2021/01/13 07:19:56;;;;;;;35.73;16.02;;;;;;;-3.52;87.52;98434.12;1812220;77;20999;-80
2021/01/13 07:22:25;;;;;;;36.65;16.00;;;;;;;-3.50;88.10;98434.69;1812395;77;20947;-82
2021/01/13 07:24:54;;;;;;;42.65;18.07;;;;;;;-3.50;88.05;98429.32;1812514;79;20923;-87
2021/01/13 07:27:22;;;;;;;33.55;16.87;;;;;;;-3.50;87.94;98428.79;1812293;77;21652;-75
2021/01/13 07:29:49;;;;;;;44.27;19.40;;;;;;;-3.49;87.93;98438.46;1812762;77;20951;-84
2021/01/13 07:32:30;;;;;;;35.05;18.00;;;;;;;-3.46;88.25;98440.61;1812257;79;21130;-74
2021/01/13 07:35:07;;;;;;;124.53;61.90;;;;;;;-3.45;88.01;98438.20;1812154;78;27254;-77
2021/01/13 07:37:39;;;;;;;47.05;26.02;;;;;;;-3.47;87.62;98429.63;1811965;77;21203;-76
2021/01/13 07:40:36;;;;;;;39.63;18.07;;;;;;;-3.47;87.57;98424.27;1801842;77;26980;-73
2021/01/13 07:43:09;;;;;;;192.00;71.92;;;;;;;-3.44;87.91;98419.70;1811632;77;21253;-74
2021/01/13 07:45:52;;;;;;;43.50;20.57;;;;;;;-3.42;87.41;98413.55;1811934;79;21162;-83
2021/01/13 07:48:34;;;;;;;43.55;20.75;;;;;;;-3.43;87.02;98407.91;1811509;79;21138;-82
2021/01/13 07:51:08;;;;;;;44.83;19.65;;;;;;;-3.42;87.07;98403.35;1810921;79;21154;-73
2021/01/13 07:53:38;;;;;;;34.85;17.12;;;;;;;-3.37;87.29;98397.50;1811944;79;22344;-76
2021/01/13 07:56:11;;;;;;;38.13;18.82;;;;;;;-3.29;87.15;98401.61;1811496;79;20951;-80
2021/01/13 07:58:39;;;;;;;46.60;22.13;;;;;;;-3.25;86.84;98393.86;1811200;79;21032;-79
2021/01/13 08:01:46;;;;;;;45.30;21.85;;;;;;;-3.23;86.64;98383.68;1709384;78;21466;-85
2021/01/13 08:04:49;;;;;;;36.35;18.77;;;;;;;-3.20;86.20;98375.92;1801442;79;21625;-75
2021/01/13 08:07:17;;;;;;;36.42;18.25;;;;;;;-3.21;85.88;98375.65;1804493;79;21788;-76
2021/01/13 08:09:50;;;;;;;37.25;17.48;;;;;;;-3.21;85.18;98380.20;1806251;79;20996;-80
2021/01/13 08:12:50;;;;;;;39.03;16.82;;;;;;;-3.22;85.38;98387.98;1806892;78;21550;-84
2021/01/13 08:15:45;;;;;;;39.55;17.55;;;;;;;-3.18;85.37;98386.41;1804456;79;21036;-89
2021/01/13 08:18:50;;;;;;;30.65;16.02;;;;;;;-3.13;85.10;98382.43;1804632;78;21482;-84
2021/01/13 08:21:26;;;;;;;39.83;18.23;;;;;;;-3.12;84.56;98382.70;1802028;79;21228;-75
2021/01/13 08:24:13;;;;;;;45.15;21.17;;;;;;;-3.11;84.59;98378.95;1805655;78;21007;-73
2021/01/13 08:26:38;;;;;;;;;;;;;;;-3.09;84.65;98378.98;1805614;78;20947;-79
2021/01/13 08:29:06;;;;;;;41.80;19.12;;;;;;;-3.05;84.33;98377.41;1795784;78;20217;-74
2021/01/13 08:31:34;;;;;;;54.55;23.27;;;;;;;-3.04;84.23;98378.21;1806910;79;21062;-74
2021/01/13 08:34:10;;;;;;;51.90;23.32;;;;;;;-3.02;84.35;98369.37;1806147;78;21792;-78
2021/01/13 08:36:53;;;;;;;56.35;22.55;;;;;;;-2.98;84.37;98369.13;1806892;78;21585;-80
2021/01/13 08:39:31;;;;;;;;;;;;;;;-2.96;84.30;98367.00;1798933;79;20949;-76
2021/01/13 08:42:23;;;;;;;53.92;22.37;;;;;;;-2.92;84.19;98365.42;1806486;79;20840;-81
2021/01/13 08:44:54;;;;;;;55.20;23.20;;;;;;;-2.89;84.23;98358.73;1806676;78;21004;-80
2021/01/13 08:47:26;;;;;;;46.98;21.73;;;;;;;-2.85;84.18;98354.43;1806891;79;22256;-77
2021/01/13 08:50:15;;;;;;;46.30;20.88;;;;;;;-2.81;84.14;98353.66;1807213;78;21078;-78
2021/01/13 08:52:50;;;;;;;39.42;19.07;;;;;;;-2.79;84.00;98348.84;1776110;79;21507;-89
2021/01/13 08:55:19;;;;;;;49.55;22.58;;;;;;;-2.73;84.14;98341.09;1803475;78;21072;-82
2021/01/13 08:58:08;;;;;;;38.15;18.87;;;;;;;-2.66;84.22;98340.87;1805442;79;21044;-81
2021/01/13 09:00:37;;;;;;;40.28;19.80;;;;;;;-2.62;83.78;98334.44;1809366;79;21591;-87
2021/01/13 09:03:11;;;;;;;39.58;19.87;;;;;;;-2.57;83.67;98330.44;1812117;79;21625;-84
2021/01/13 09:05:40;;;;;;;41.23;20.43;;;;;;;-2.54;83.42;98321.33;1812397;79;21149;-78
2021/01/13 09:08:10;;;;;;;35.78;18.35;;;;;;;-2.51;83.50;98314.63;1813451;78;21585;-81
2021/01/13 09:10:53;;;;;;;48.50;21.05;;;;;;;-2.47;83.49;98312.50;1813009;79;20994;-81
2021/01/13 09:13:33;;;;;;;37.03;18.98;;;;;;;-2.46;83.00;98306.59;1813620;79;21184;-78
2021/01/13 09:16:31;;;;;;;35.90;17.60;;;;;;;-2.48;82.84;98304.70;1813168;79;20951;-85
2021/01/13 09:19:05;;;;;;;46.05;20.20;;;;;;;-2.50;82.51;98301.45;1794793;79;20946;-89
2021/01/13 09:21:54;;;;;;;40.55;20.12;;;;;;;-2.54;82.43;98295.80;1810987;78;21178;-84
2021/01/13 09:24:22;;;;;;;41.33;20.80;;;;;;;-2.53;82.30;98299.30;1777394;79;21542;-80
2021/01/13 09:26:57;;;;;;;40.17;20.48;;;;;;;-2.53;82.35;98289.36;1785571;77;21329;-81
2021/01/13 09:29:26;;;;;;;42.10;21.27;;;;;;;-2.53;82.35;98289.89;1813022;79;21058;-81
2021/01/13 09:32:12;;;;;;;42.58;21.60;;;;;;;-2.49;82.12;98293.67;1812461;77;21070;-83
2021/01/13 09:34:40;;;;;;;46.45;22.10;;;;;;;-2.50;82.06;98296.09;1813218;78;21002;-85
2021/01/13 09:37:08;;;;;;;46.02;20.80;;;;;;;-2.49;82.26;98292.33;1811775;78;21201;-85
2021/01/13 09:39:38;;;;;;;67.00;30.30;;;;;;;-2.46;82.33;98285.89;1788086;79;21140;-86
2021/01/13 09:42:07;;;;;;;76.42;34.95;;;;;;;-2.45;82.17;98282.14;1813227;79;21067;-87
2021/01/13 09:44:36;;;;;;;60.20;29.05;;;;;;;-2.43;82.32;98279.19;1812441;79;20948;-78
2021/01/13 09:47:27;;;;;;;54.48;26.25;;;;;;;-2.40;82.42;98278.13;1812020;79;21506;-77
2021/01/13 09:49:57;;;;;;;51.80;25.62;;;;;;;-2.36;82.81;98275.19;1769109;79;21058;-80
2021/01/13 09:52:25;;;;;;;52.83;26.07;;;;;;;-2.30;82.72;98281.91;1811962;79;21380;-80
2021/01/13 09:54:59;;;;;;;46.95;23.80;;;;;;;-2.29;82.66;98277.61;1813310;79;20967;-80
2021/01/13 09:57:27;;;;;;;50.12;24.85;;;;;;;-2.26;82.56;98270.89;1787138;79;21074;-75
2021/01/13 10:00:12;;;;;;;51.88;25.90;;;;;;;-2.23;82.50;98269.84;1813138;79;21051;-78
2021/01/13 10:02:41;;;;;;;55.80;27.20;;;;;;;-2.21;82.37;98271.72;1809223;78;21145;-75
2021/01/13 10:05:10;;;;;;;59.42;27.82;;;;;;;-2.19;82.33;98260.70;1811963;79;21256;-74
2021/01/13 10:07:37;;;;;;;60.38;26.73;;;;;;;-2.19;82.34;98251.30;1811622;79;21381;-79
2021/01/13 10:10:07;;;;;;;63.08;30.70;;;;;;;-2.22;82.32;98249.94;1813243;78;20932;-74
2021/01/13 10:12:39;;;;;;;59.48;29.45;;;;;;;-2.19;82.86;98247.27;1813320;78;21003;-84
2021/01/13 10:15:12;;;;;;;69.65;29.82;;;;;;;-2.15;82.91;98247.01;1813598;78;21450;-76
2021/01/13 10:17:41;;;;;;;59.13;27.58;;;;;;;-2.13;82.85;98242.17;1813420;79;21367;-75
2021/01/13 10:20:18;;;;;;;67.97;31.45;;;;;;;-2.11;82.91;98247.55;1812931;79;21027;-80
2021/01/13 10:22:47;;;;;;;56.20;25.82;;;;;;;-2.12;82.76;98243.25;1811952;77;21491;-75
2021/01/13 10:25:33;;;;;;;63.23;26.25;;;;;;;-2.11;82.69;98239.48;1812424;77;21177;-72
2021/01/13 10:28:01;;;;;;;49.95;24.50;;;;;;;-2.10;82.27;98231.70;1808044;77;21106;-74
2021/01/13 10:30:30;;;;;;;50.90;23.77;;;;;;;-2.08;82.11;98228.73;1808942;77;21344;-78
2021/01/13 10:32:59;;;;;;;56.95;25.65;;;;;;;-2.07;82.15;98229.82;1805614;79;21075;-80
2021/01/13 10:35:39;;;;;;;63.78;26.80;;;;;;;-2.02;82.12;98222.30;1813358;79;21625;-87
2021/01/13 10:38:07;;;;;;;64.72;28.92;;;;;;;-1.99;82.01;98224.45;1811042;79;20932;-84
2021/01/13 10:40:35;;;;;;;68.67;31.55;;;;;;;-1.94;82.13;98215.59;1813425;79;20908;-77
2021/01/13 10:43:02;;;;;;;77.15;33.13;;;;;;;-1.88;82.17;98206.45;1813390;79;22266;-81
2021/01/13 10:45:31;;;;;;;78.33;33.18;;;;;;;-1.83;82.14;98195.70;1786238;79;20975;-80
2021/01/13 10:48:01;;;;;;;82.50;33.63;;;;;;;-1.80;82.14;98195.97;1813261;77;21621;-83
2021/01/13 10:50:31;;;;;;;58.90;26.65;;;;;;;-1.80;82.06;98193.28;1812552;79;20992;-73
2021/01/13 10:53:00;;;;;;;59.67;26.48;;;;;;;-1.73;82.31;98191.64;1811626;77;21165;-85
2021/01/13 10:55:29;;;;;;;59.63;27.00;;;;;;;-1.64;82.24;98187.87;1812166;79;22408;-84
2021/01/13 10:57:57;;;;;;;50.52;24.40;;;;;;;-1.58;81.78;98183.57;1812582;77;21102;-82
2021/01/13 11:00:29;;;;;;;48.78;22.93;;;;;;;-1.56;81.47;98181.42;1811742;77;20924;-84
2021/01/13 11:02:59;;;;;;;47.20;23.18;;;;;;;-1.54;80.82;98169.03;1790736;77;21173;-86
2021/01/13 11:05:27;;;;;;;56.60;25.27;;;;;;;-1.58;80.74;98162.05;1807027;77;21153;-84
2021/01/13 11:07:56;;;;;;;58.45;26.17;;;;;;;-1.61;80.60;98156.39;1812965;79;21435;-81
2021/01/13 11:10:28;;;;;;;56.80;25.30;;;;;;;-1.61;80.76;98153.16;1812601;79;21074;-83
2021/01/13 11:13:02;;;;;;;48.40;23.45;;;;;;;-1.57;80.75;98158.81;1811539;79;22354;-82
2021/01/13 11:15:31;;;;;;;54.33;24.67;;;;;;;-1.56;80.49;98157.20;1811466;79;21031;-83
2021/01/13 11:17:59;;;;;;;50.85;23.80;;;;;;;-1.66;80.37;98151.28;1811601;79;21150;-81
2021/01/13 11:20:30;;;;;;;48.35;20.45;;;;;;;-1.77;80.71;98150.24;1812177;78;21191;-86
2021/01/13 11:23:01;;;;;;;49.88;24.52;;;;;;;-1.85;81.05;98143.52;1811810;79;21031;-83
2021/01/13 11:25:39;;;;;;;56.08;23.47;;;;;;;-1.88;81.24;98149.43;1811647;78;21051;-81
2021/01/13 11:28:13;;;;;;;48.83;24.30;;;;;;;-1.90;81.62;98150.77;1811600;79;21451;-84
2021/01/13 11:30:47;;;;;;;49.18;23.87;;;;;;;-1.89;81.93;98141.63;1811655;78;20968;-85
2021/01/13 11:33:16;;;;;;;44.40;22.07;;;;;;;-1.88;81.93;98138.67;1811714;79;22123;-86
2021/01/13 11:35:47;;;;;;;42.98;20.90;;;;;;;-1.87;81.92;98138.13;1811884;77;21126;-87
2021/01/13 11:38:52;;;;;;;47.43;22.90;;;;;;;-1.91;81.63;98136.52;1781254;79;21055;-80
2021/01/13 11:41:32;;;;;;;52.73;22.70;;;;;;;-1.94;81.59;98132.22;1780588;80;21173;-83
2021/01/13 11:44:25;;;;;;;48.65;22.93;;;;;;;-1.99;81.50;98137.05;1783292;77;21578;-84
2021/01/13 11:47:14;;;;;;;44.55;20.20;;;;;;;-2.07;81.84;98130.33;1792881;79;21197;-88
2021/01/13 11:49:52;;;;;;;50.45;20.92;;;;;;;-2.04;82.34;98133.02;1795314;77;21130;-85
2021/01/13 11:52:25;;;;;;;44.33;21.25;;;;;;;-2.00;82.28;98129.52;1813248;78;21118;-83
2021/01/13 11:54:55;;;;;;;44.15;20.52;;;;;;;-1.98;81.99;98129.80;1813157;79;21011;-83